Aeroporto :
LOGIN :

Iscrizione | Disclaimer

   EN    FR    IT 

 










Sommario :    VFR   VFR Marginale   IFR   IFR Intensivo   IFR Molto Intensivo
Visibilità : 
Base nubi : 
>= 8 km
>= 3000ft
5 / 8 km
1000 / 3000 ft
1500m / 5 km
500 / 1000 ft
800 / 1500m
200 / 500 ft
< 800m
< 200 ft
Simboli :   Temporali  Nebbia  Neve Forte  Precipitazioni Forti  Vento > 20 kt
SIGMETs :   Varie  Temporali  Ghiacco  Turbolenza  Onda orograficha  Ceneri Vulcaniche






- Altitudine del aeroporto : 124 ft
- Codice IATA : NHT


EGWU - RAF Northolt

ULTIMO METAR :
  • 061734Z 26007KT 9999 -TSRA FEW012 SCT020CB BKN090 09/08 Q0999 TEMPO 4000 TSRA RMK WHT TEMPO GRN

METARs OBSOLETI :
  • 061720Z 27013KT 9999 6000SW SHRA FEW012 BKN020CB 09/07 Q0999 RETS RESHRA RESHGS TEMPO 4000 +TSRA RMK WHT TEMPO GRN
  • 061650Z 35011KT 9999 TS VCSH SCT022CB BKN060 12/05 Q0999 TEMPO 4000 TSRA BKN025CB RMK WHT TEMPO GRN
  • 061620Z 26017KT 9999 TS VCSH FEW017CB SCT022 BKN040 13/09 Q0998 TEMPO 4000 TSRA SCT025CB RMK WHT TEMPO GRN
  • 061550Z 25016KT 9999 TS FEW018CB BKN021 14/09 Q0998 TEMPO 4000 TSRA SCT025CB
  • 061520Z 25013G23KT 9999 FEW022CB SCT024 BKN060 14/09 Q0998 TEMPO 5000 SHRA SCT025CB RMK WHT TEMPO WHT
  • 061450Z 24017KT 9999 SCT023 BKN060 13/08 Q0998 BECMG SCT025

TAF TAF EGWU
Valido dal 06 a 18 ore il 07 a 12 ore UTC


061637Z 0618/0712 29012KT 9999 SCT025
PROB40
TEMPO 0618/0620 4000 +TSRA BKN022CB
PROB30
TEMPO 0704/0708 SCT007



MetMap, La meteo Aeronautica in un colpo d'occhio ! - Copyright ORBIFLY Dicembre 2007 - Disclaimer

ORBIFLY MET'MAP TEAM :

Programmazione e sviluppo : Alexandra Zaïnal
Concezione : Baudouin d'Aumeries
Aiuto per la programmazione : Marc-Olivier Méhu
Supporto tecnico e logistico : Manuel Goepfert
Aiuto per la traduzione : Arnaldo La Scala

Contatto : metmap@orbifly.com




FONTI E CREDITI :

   NOAA